Terminal Aerodrome Forecast
Issued by NWS North Platte, NE

Home | Current Version | Previous Version | Text Only | Print | Product List | Glossary On
Versions: 1 2 3 4 5 6 7 8 9 10 11 12 13
000
FTUS43 KLBF 262232 AAA
TAFVTN
TAF AMD
KVTN 262232Z 2623/2718 18015KT P6SM SCT070
     FM270000 16012G18KT P6SM VCTS BKN060CB BKN120
      TEMPO 2701/2705 VRB25G40KT 4SM TSRA BKN040CB OVC120
     FM270500 14012KT P6SM -SHRA BKN070 OVC150
     FM270800 36009KT P6SM BKN150
     FM271100 36009KT P6SM BKN015 OVC150
     FM271600 36010KT P6SM SCT015 BKN150=

USA.gov is the U.S. government's official web portal to all federal, state and local government web resources and services.